createdAt,value
2022-12-16T00:03:52.913Z,5.9
2022-12-16T00:09:28.745Z,4.8
2022-12-16T00:14:51.552Z,2.4
2022-12-16T00:20:15.376Z,3.6
2022-12-16T00:26:17.197Z,5.9
2022-12-16T00:31:47.187Z,8.4
2022-12-16T00:37:00.809Z,7.2
2022-12-16T00:42:48.430Z,7.2
2022-12-16T00:48:25.532Z,7.2
2022-12-16T00:53:45.566Z,4.8
2022-12-16T00:59:30.067Z,4.8
2022-12-16T01:05:03.366Z,4.8
2022-12-16T01:10:32.830Z,2.4
2022-12-16T01:15:44.290Z,3.6
2022-12-16T01:21:18.048Z,5.9
2022-12-16T01:26:49.897Z,3.6
2022-12-16T01:32:20.221Z,4.8
2022-12-16T01:38:14.450Z,4.8
2022-12-16T05:35:58.458Z,0
2022-12-16T05:36:16.475Z,0
2022-12-16T05:41:52.334Z,0
2022-12-16T05:47:09.455Z,0
2022-12-16T05:52:46.344Z,0
2022-12-16T05:58:31.128Z,0
2022-12-16T06:03:42.101Z,0
2022-12-16T06:09:27.096Z,2.4
2022-12-16T06:15:02.790Z,0
2022-12-16T06:20:13.230Z,0
2022-12-16T06:25:56.964Z,0
2022-12-16T06:31:17.229Z,3.6
2022-12-16T06:36:48.148Z,7.2
2022-12-16T06:42:44.885Z,5.9
2022-12-16T06:47:57.599Z,5.9
2022-12-16T06:53:51.233Z,5.9
2022-12-16T06:59:01.472Z,7.2
2022-12-16T07:04:32.069Z,5.9
2022-12-16T07:10:02.042Z,5.9
2022-12-16T07:15:51.655Z,7.2
2022-12-16T07:21:20.790Z,7.2
2022-12-16T07:27:02.336Z,7.2
2022-12-16T07:32:10.131Z,7.2
2022-12-16T07:38:06.084Z,7.2
2022-12-16T07:43:15.273Z,7.2
2022-12-16T07:48:57.682Z,7.2
2022-12-16T07:54:18.861Z,8.4
2022-12-16T07:59:51.718Z,7.2
2022-12-16T08:05:39.222Z,5.9
2022-12-16T08:16:33.418Z,7.2
2022-12-16T08:22:09.576Z,7.2
2022-12-16T08:27:52.586Z,7.2
2022-12-16T08:33:22.801Z,7.2
2022-12-16T08:38:40.334Z,8.4
2022-12-16T08:44:17.479Z,5.9
2022-12-16T08:50:05.863Z,5.9
2022-12-16T08:55:36.375Z,5.9
2022-12-16T09:00:50.052Z,5.9
2022-12-16T09:06:21.396Z,7.2
2022-12-16T09:12:07.232Z,7.2
2022-12-16T09:17:48.544Z,8.4
2022-12-16T09:22:56.149Z,8.4
2022-12-16T09:28:54.813Z,8.4
2022-12-16T09:34:10.739Z,9.6
2022-12-16T09:39:51.605Z,9.6
2022-12-16T09:45:22.714Z,9.6
2022-12-16T09:50:40.568Z,9.6
2022-12-16T09:56:17.588Z,9.6
2022-12-16T10:02:06.421Z,10.7
2022-12-16T10:07:28.421Z,9.6
2022-12-16T10:13:03.796Z,8.4
2022-12-16T10:18:20.201Z,10.7
2022-12-16T10:24:15.829Z,8.4
2022-12-16T10:29:38.291Z,7.2
2022-12-16T10:34:59.359Z,8.4
2022-12-16T10:40:36.167Z,8.4
2022-12-16T10:45:59.079Z,9.6
2022-12-16T10:51:49.218Z,10.7
2022-12-16T10:57:29.348Z,11.9
2022-12-16T11:03:05.644Z,11.9
2022-12-16T11:08:09.846Z,11.9
2022-12-16T11:14:09.732Z,11.9
2022-12-16T11:19:26.133Z,10.7
2022-12-16T11:24:47.723Z,9.6
2022-12-16T11:30:29.742Z,8.4
2022-12-16T11:36:11.550Z,8.4
2022-12-16T11:41:40.409Z,5.9
2022-12-16T11:47:12.241Z,7.2
2022-12-16T11:52:37.400Z,7.2
2022-12-16T11:58:23.202Z,8.4
2022-12-16T12:03:39.424Z,8.4
2022-12-16T12:09:31.375Z,9.6
2022-12-16T12:14:42.775Z,10.7
2022-12-16T12:20:37.779Z,8.4
2022-12-16T12:25:48.086Z,10.7
2022-12-16T12:31:31.088Z,9.6
2022-12-16T12:37:07.348Z,10.7
2022-12-16T12:42:25.761Z,10.7
2022-12-16T12:48:09.413Z,9.6
2022-12-16T12:53:54.784Z,10.7
2022-12-16T12:59:28.016Z,7.2
2022-12-16T13:04:59.760Z,4.8
2022-12-16T13:10:18.668Z,4.8
2022-12-16T13:15:46.217Z,7.2
2022-12-16T13:21:19.142Z,9.6
2022-12-16T13:27:07.834Z,8.4
2022-12-16T13:32:26.256Z,7.2
2022-12-16T13:38:08.538Z,5.9
2022-12-16T13:43:27.384Z,9.6
2022-12-16T13:49:21.939Z,9.6
2022-12-16T13:54:36.953Z,8.4
2022-12-16T14:00:20.356Z,9.6
2022-12-16T14:05:47.402Z,7.2
2022-12-16T14:16:49.000Z,7.2
2022-12-16T14:22:08.910Z,5.9
2022-12-16T14:27:39.544Z,5.9
2022-12-16T14:33:35.515Z,8.4
2022-12-16T14:39:05.623Z,8.4
2022-12-16T14:44:22.136Z,7.2
2022-12-16T14:50:06.369Z,8.4
2022-12-16T14:55:34.659Z,8.4
2022-12-16T15:01:19.221Z,7.2
2022-12-16T15:06:26.774Z,8.4
2022-12-16T15:12:27.651Z,7.2
2022-12-16T15:17:41.756Z,8.4
2022-12-16T15:23:06.285Z,8.4
2022-12-16T15:28:45.816Z,7.2
2022-12-16T15:34:16.476Z,7.2
2022-12-16T15:39:59.497Z,5.9
2022-12-16T15:45:15.228Z,5.9
2022-12-16T15:50:48.207Z,7.2
2022-12-16T15:56:20.582Z,7.2
2022-12-16T16:02:06.150Z,8.4
2022-12-16T16:07:29.481Z,8.4
2022-12-16T16:13:03.509Z,8.4
2022-12-16T16:18:29.022Z,8.4
2022-12-16T16:24:04.067Z,8.4
2022-12-16T16:29:50.618Z,8.4
2022-12-16T16:35:05.455Z,8.4
2022-12-16T16:40:46.366Z,8.4
2022-12-16T16:46:17.643Z,8.4
2022-12-16T16:51:38.607Z,5.9
2022-12-16T16:57:26.431Z,5.9
2022-12-16T17:02:43.296Z,2.4
2022-12-16T17:08:18.227Z,3.6
2022-12-16T17:13:52.817Z,3.6
2022-12-16T17:19:23.875Z,7.2
2022-12-16T17:25:13.918Z,5.9
2022-12-16T17:30:28.260Z,3.6
2022-12-16T17:36:18.462Z,5.9
2022-12-16T17:41:36.264Z,5.9
2022-12-16T17:47:17.987Z,4.8
2022-12-16T17:52:45.239Z,4.8
2022-12-16T17:58:20.164Z,2.4
2022-12-16T18:03:45.389Z,0
2022-12-16T18:09:30.708Z,3.6
2022-12-16T18:14:56.278Z,0
2022-12-16T18:20:17.105Z,0
2022-12-16T18:25:43.299Z,0
2022-12-16T18:31:23.837Z,0
2022-12-16T18:36:50.237Z,3.6
2022-12-16T18:42:28.743Z,4.8
2022-12-16T18:47:48.916Z,4.8
2022-12-16T18:53:45.827Z,4.8
2022-12-16T18:58:55.580Z,5.9
2022-12-16T19:04:27.539Z,5.9
2022-12-16T19:10:05.216Z,7.2
2022-12-16T19:15:50.640Z,5.9
2022-12-16T19:20:58.090Z,5.9
2022-12-16T19:26:36.321Z,4.8
2022-12-16T19:32:23.337Z,3.6
2022-12-16T19:37:51.219Z,0
2022-12-16T19:43:08.744Z,0
2022-12-16T19:48:45.184Z,0
2022-12-16T19:54:24.814Z,0
2022-12-16T19:59:49.524Z,4.8
2022-12-16T20:05:24.890Z,0
2022-12-16T20:10:43.762Z,0
2022-12-16T20:16:16.123Z,0
2022-12-16T20:21:47.701Z,3.6
2022-12-16T20:27:14.964Z,0
2022-12-16T20:33:10.844Z,3.6
2022-12-16T20:38:31.525Z,2.4
2022-12-16T20:43:54.344Z,0
2022-12-16T20:49:34.641Z,0
2022-12-16T20:55:06.837Z,0
2022-12-16T21:00:25.684Z,0
2022-12-16T21:06:16.020Z,0
2022-12-16T21:11:23.322Z,0
2022-12-16T21:16:53.803Z,0
2022-12-16T21:22:51.778Z,0
2022-12-16T21:28:03.755Z,3.6
2022-12-16T21:33:28.614Z,5.9
2022-12-16T21:39:00.853Z,0
2022-12-16T21:44:52.602Z,0
2022-12-16T21:50:15.649Z,0
2022-12-16T21:55:39.921Z,0
2022-12-16T22:06:50.217Z,0
2022-12-16T22:12:05.444Z,0
2022-12-16T22:17:38.085Z,0
2022-12-16T22:23:32.873Z,0
2022-12-16T22:28:54.875Z,0
2022-12-16T22:34:32.156Z,0
2022-12-16T22:39:44.834Z,0
2022-12-16T22:45:38.487Z,0
2022-12-16T22:50:43.155Z,0
2022-12-16T22:56:26.316Z,0
2022-12-16T23:01:55.796Z,0
2022-12-16T23:07:13.935Z,0
2022-12-16T23:12:56.362Z,0
2022-12-16T23:18:21.932Z,0
2022-12-16T23:23:59.072Z,0
2022-12-16T23:29:27.317Z,0
2022-12-16T23:35:17.510Z,0
2022-12-16T23:40:38.825Z,0
2022-12-16T23:46:16.754Z,0
2022-12-16T23:51:47.978Z,0
2022-12-16T23:57:20.095Z,0
